sensor_id;sensor_type;location;lat;lon;timestamp;pressure;altitude;pressure_sealevel;temperature;humidity
22830;BME280;11581;51.250;6.778;2024-01-06T00:01:39;61883.59;;;-140.56;100.00
22830;BME280;11581;51.250;6.778;2024-01-06T00:05:05;61883.59;;;-140.56;100.00
22830;BME280;11581;51.250;6.778;2024-01-06T00:08:30;61883.59;;;-140.56;100.00
22830;BME280;11581;51.250;6.778;2024-01-06T00:11:56;61883.59;;;-140.56;100.00
22830;BME280;11581;51.250;6.778;2024-01-06T00:15:22;61883.59;;;-140.56;100.00
22830;BME280;11581;51.250;6.778;2024-01-06T00:18:47;61883.59;;;-140.56;100.00
22830;BME280;11581;51.250;6.778;2024-01-06T00:22:13;61883.59;;;-140.56;100.00
22830;BME280;11581;51.250;6.778;2024-01-06T00:25:38;61883.59;;;-140.56;100.00
22830;BME280;11581;51.250;6.778;2024-01-06T00:29:04;61883.59;;;-140.56;100.00
22830;BME280;11581;51.250;6.778;2024-01-06T00:32:29;61883.59;;;-140.56;100.00
22830;BME280;11581;51.250;6.778;2024-01-06T00:35:55;61883.59;;;-140.56;100.00
22830;BME280;11581;51.250;6.778;2024-01-06T00:39:20;61883.59;;;-140.56;100.00
22830;BME280;11581;51.250;6.778;2024-01-06T00:42:45;61883.59;;;-140.56;100.00
22830;BME280;11581;51.250;6.778;2024-01-06T00:46:11;61883.59;;;-140.56;100.00
22830;BME280;11581;51.250;6.778;2024-01-06T00:49:37;61883.59;;;-140.56;100.00
22830;BME280;11581;51.250;6.778;2024-01-06T00:53:02;61883.59;;;-140.56;100.00
22830;BME280;11581;51.250;6.778;2024-01-06T00:56:27;61883.59;;;-140.56;100.00
22830;BME280;11581;51.250;6.778;2024-01-06T00:59:52;61883.59;;;-140.56;100.00
22830;BME280;11581;51.250;6.778;2024-01-06T01:03:19;61883.59;;;-140.56;100.00
22830;BME280;11581;51.250;6.778;2024-01-06T01:06:44;61883.59;;;-140.56;100.00
22830;BME280;11581;51.250;6.778;2024-01-06T01:10:09;61883.59;;;-140.56;100.00
22830;BME280;11581;51.250;6.778;2024-01-06T01:13:34;61883.59;;;-140.56;100.00
22830;BME280;11581;51.250;6.778;2024-01-06T01:17:00;61883.59;;;-140.56;100.00
22830;BME280;11581;51.250;6.778;2024-01-06T01:20:26;61883.59;;;-140.56;100.00
22830;BME280;11581;51.250;6.778;2024-01-06T01:23:51;61883.59;;;-140.56;100.00
22830;BME280;11581;51.250;6.778;2024-01-06T01:27:17;61883.59;;;-140.56;100.00
22830;BME280;11581;51.250;6.778;2024-01-06T01:30:42;61883.59;;;-140.56;100.00
22830;BME280;11581;51.250;6.778;2024-01-06T01:34:07;61883.59;;;-140.56;100.00
22830;BME280;11581;51.250;6.778;2024-01-06T01:37:33;61883.59;;;-140.56;100.00
22830;BME280;11581;51.250;6.778;2024-01-06T01:40:58;61883.59;;;-140.56;100.00
22830;BME280;11581;51.250;6.778;2024-01-06T01:44:24;61883.59;;;-140.56;100.00
22830;BME280;11581;51.250;6.778;2024-01-06T01:47:49;61883.59;;;-140.56;100.00
22830;BME280;11581;51.250;6.778;2024-01-06T01:51:14;61883.59;;;-140.56;100.00
22830;BME280;11581;51.250;6.778;2024-01-06T01:54:41;61883.59;;;-140.56;100.00
22830;BME280;11581;51.250;6.778;2024-01-06T01:57:38;99585.28;;;10.18;82.79
22830;BME280;11581;51.250;6.778;2024-01-06T02:00:07;99585.28;;;10.18;82.79
22830;BME280;11581;51.250;6.778;2024-01-06T02:03:35;61883.59;;;-140.56;100.00
22830;BME280;11581;51.250;6.778;2024-01-06T02:06:50;76718.91;;;-140.56;82.79
22830;BME280;11581;51.250;6.778;2024-01-06T02:09:28;99585.28;;;10.18;82.79
22830;BME280;11581;51.250;6.778;2024-01-06T02:12:55;61883.59;;;-140.56;100.00
22830;BME280;11581;51.250;6.778;2024-01-06T02:16:20;61883.59;;;-140.56;100.00
22830;BME280;11581;51.250;6.778;2024-01-06T02:18:54;61883.59;;;-140.56;100.00
22830;BME280;11581;51.250;6.778;2024-01-06T02:21:23;61883.59;;;-140.56;100.00
22830;BME280;11581;51.250;6.778;2024-01-06T02:23:51;99929.69;;;10.76;82.55
22830;BME280;11581;51.250;6.778;2024-01-06T02:26:18;99979.69;;;10.98;83.28
22830;BME280;11581;51.250;6.778;2024-01-06T02:28:45;99923.84;;;10.57;83.30
22830;BME280;11581;51.250;6.778;2024-01-06T02:31:13;99988.69;;;10.89;83.63
22830;BME280;11581;51.250;6.778;2024-01-06T02:33:39;99974.69;;;10.79;83.48
22830;BME280;11581;51.250;6.778;2024-01-06T02:36:07;99984.19;;;10.82;83.51
22830;BME280;11581;51.250;6.778;2024-01-06T02:38:33;99988.88;;;10.80;83.97
22830;BME280;11581;51.250;6.778;2024-01-06T02:41:01;99987.03;;;10.72;83.97
22830;BME280;11581;51.250;6.778;2024-01-06T02:43:28;99997.03;;;10.78;84.37
22830;BME280;11581;51.250;6.778;2024-01-06T02:46:53;61883.59;;;-140.56;100.00
22830;BME280;11581;51.250;6.778;2024-01-06T02:50:19;61883.59;;;-140.56;100.00
22830;BME280;11581;51.250;6.778;2024-01-06T02:53:45;61883.59;;;-140.56;100.00
22830;BME280;11581;51.250;6.778;2024-01-06T02:57:11;61883.59;;;-140.56;100.00
22830;BME280;11581;51.250;6.778;2024-01-06T03:00:37;61883.59;;;-140.56;100.00
22830;BME280;11581;51.250;6.778;2024-01-06T03:04:02;61883.59;;;-140.56;100.00
22830;BME280;11581;51.250;6.778;2024-01-06T03:07:28;61883.59;;;-140.56;100.00
22830;BME280;11581;51.250;6.778;2024-01-06T03:10:53;61883.59;;;-140.56;100.00
22830;BME280;11581;51.250;6.778;2024-01-06T03:14:19;61883.59;;;-140.56;100.00
22830;BME280;11581;51.250;6.778;2024-01-06T03:17:44;61883.59;;;-140.56;100.00
22830;BME280;11581;51.250;6.778;2024-01-06T03:21:16;61883.59;;;-140.56;100.00
22830;BME280;11581;51.250;6.778;2024-01-06T03:24:41;61883.59;;;-140.56;100.00
22830;BME280;11581;51.250;6.778;2024-01-06T03:28:06;61883.59;;;-140.56;100.00
22830;BME280;11581;51.250;6.778;2024-01-06T03:31:33;61883.59;;;-140.56;100.00
22830;BME280;11581;51.250;6.778;2024-01-06T03:34:58;61883.59;;;-140.56;100.00
22830;BME280;11581;51.250;6.778;2024-01-06T03:38:23;61883.59;;;-140.56;100.00
22830;BME280;11581;51.250;6.778;2024-01-06T03:41:48;61883.59;;;-140.56;100.00
22830;BME280;11581;51.250;6.778;2024-01-06T03:45:13;61883.59;;;-140.56;100.00
22830;BME280;11581;51.250;6.778;2024-01-06T03:48:40;61883.59;;;-140.56;100.00
22830;BME280;11581;51.250;6.778;2024-01-06T03:52:05;61883.59;;;-140.56;100.00
22830;BME280;11581;51.250;6.778;2024-01-06T03:55:30;61883.59;;;-140.56;100.00
22830;BME280;11581;51.250;6.778;2024-01-06T03:58:56;61883.59;;;-140.56;100.00
22830;BME280;11581;51.250;6.778;2024-01-06T04:02:21;61883.59;;;-140.56;100.00
22830;BME280;11581;51.250;6.778;2024-01-06T04:05:47;61883.59;;;-140.56;100.00
22830;BME280;11581;51.250;6.778;2024-01-06T04:09:13;61883.59;;;-140.56;100.00
22830;BME280;11581;51.250;6.778;2024-01-06T04:12:38;61883.59;;;-140.56;100.00
22830;BME280;11581;51.250;6.778;2024-01-06T04:16:03;61883.59;;;-140.56;100.00
22830;BME280;11581;51.250;6.778;2024-01-06T04:19:29;61883.59;;;-140.56;100.00
22830;BME280;11581;51.250;6.778;2024-01-06T04:22:55;61883.59;;;-140.56;100.00
22830;BME280;11581;51.250;6.778;2024-01-06T04:26:20;61883.59;;;-140.56;100.00
22830;BME280;11581;51.250;6.778;2024-01-06T04:29:46;61883.59;;;-140.56;100.00
22830;BME280;11581;51.250;6.778;2024-01-06T04:33:11;61883.59;;;-140.56;100.00
22830;BME280;11581;51.250;6.778;2024-01-06T04:36:36;61883.59;;;-140.56;100.00
22830;BME280;11581;51.250;6.778;2024-01-06T04:40:03;61883.59;;;-140.56;100.00
22830;BME280;11581;51.250;6.778;2024-01-06T04:43:28;61883.59;;;-140.56;100.00
22830;BME280;11581;51.250;6.778;2024-01-06T04:46:54;61883.59;;;-140.56;100.00
22830;BME280;11581;51.250;6.778;2024-01-06T04:50:19;61883.59;;;-140.56;100.00
22830;BME280;11581;51.250;6.778;2024-01-06T04:53:44;61883.59;;;-140.56;100.00
22830;BME280;11581;51.250;6.778;2024-01-06T04:57:10;61883.59;;;-140.56;100.00
22830;BME280;11581;51.250;6.778;2024-01-06T05:00:35;61883.59;;;-140.56;100.00
22830;BME280;11581;51.250;6.778;2024-01-06T05:04:01;61883.59;;;-140.56;100.00
22830;BME280;11581;51.250;6.778;2024-01-06T05:07:26;61883.59;;;-140.56;100.00
22830;BME280;11581;51.250;6.778;2024-01-06T05:10:51;61883.59;;;-140.56;100.00
22830;BME280;11581;51.250;6.778;2024-01-06T05:14:18;61883.59;;;-140.56;100.00
22830;BME280;11581;51.250;6.778;2024-01-06T05:17:43;61883.59;;;-140.56;100.00
22830;BME280;11581;51.250;6.778;2024-01-06T05:21:09;61883.59;;;-140.56;100.00
22830;BME280;11581;51.250;6.778;2024-01-06T05:24:34;61883.59;;;-140.56;100.00
22830;BME280;11581;51.250;6.778;2024-01-06T05:27:59;61883.59;;;-140.56;100.00
22830;BME280;11581;51.250;6.778;2024-01-06T05:31:26;61883.59;;;-140.56;100.00
22830;BME280;11581;51.250;6.778;2024-01-06T05:34:51;61883.59;;;-140.56;100.00
22830;BME280;11581;51.250;6.778;2024-01-06T05:38:16;61883.59;;;-140.56;100.00
22830;BME280;11581;51.250;6.778;2024-01-06T05:41:41;61883.59;;;-140.56;100.00
22830;BME280;11581;51.250;6.778;2024-01-06T05:45:09;61883.59;;;-140.56;100.00
22830;BME280;11581;51.250;6.778;2024-01-06T05:48:36;61883.59;;;-140.56;100.00
22830;BME280;11581;51.250;6.778;2024-01-06T05:52:02;61883.59;;;-140.56;100.00
22830;BME280;11581;51.250;6.778;2024-01-06T05:55:27;61883.59;;;-140.56;100.00
22830;BME280;11581;51.250;6.778;2024-01-06T05:58:53;61883.59;;;-140.56;100.00
22830;BME280;11581;51.250;6.778;2024-01-06T06:02:18;61883.59;;;-140.56;100.00
22830;BME280;11581;51.250;6.778;2024-01-06T06:05:45;61883.59;;;-140.56;100.00
22830;BME280;11581;51.250;6.778;2024-01-06T06:09:10;61883.59;;;-140.56;100.00
22830;BME280;11581;51.250;6.778;2024-01-06T06:12:35;61883.59;;;-140.56;100.00
22830;BME280;11581;51.250;6.778;2024-01-06T06:16:00;61883.59;;;-140.56;100.00
22830;BME280;11581;51.250;6.778;2024-01-06T06:19:26;61883.59;;;-140.56;100.00
22830;BME280;11581;51.250;6.778;2024-01-06T06:22:53;61883.59;;;-140.56;100.00
22830;BME280;11581;51.250;6.778;2024-01-06T06:26:18;61883.59;;;-140.56;100.00
22830;BME280;11581;51.250;6.778;2024-01-06T06:29:43;61883.59;;;-140.56;100.00
22830;BME280;11581;51.250;6.778;2024-01-06T06:33:08;61883.59;;;-140.56;100.00
22830;BME280;11581;51.250;6.778;2024-01-06T06:36:33;61883.59;;;-140.56;100.00
22830;BME280;11581;51.250;6.778;2024-01-06T06:40:00;61883.59;;;-140.56;100.00
22830;BME280;11581;51.250;6.778;2024-01-06T06:43:25;61883.59;;;-140.56;100.00
22830;BME280;11581;51.250;6.778;2024-01-06T06:46:50;61883.59;;;-140.56;100.00
22830;BME280;11581;51.250;6.778;2024-01-06T06:50:16;61883.59;;;-140.56;100.00
22830;BME280;11581;51.250;6.778;2024-01-06T06:53:41;61883.59;;;-140.56;100.00
22830;BME280;11581;51.250;6.778;2024-01-06T06:57:08;61883.59;;;-140.56;100.00
22830;BME280;11581;51.250;6.778;2024-01-06T07:00:33;61883.59;;;-140.56;100.00
22830;BME280;11581;51.250;6.778;2024-01-06T07:03:58;61883.59;;;-140.56;100.00
22830;BME280;11581;51.250;6.778;2024-01-06T07:07:24;61883.59;;;-140.56;100.00
22830;BME280;11581;51.250;6.778;2024-01-06T07:10:49;61883.59;;;-140.56;100.00
22830;BME280;11581;51.250;6.778;2024-01-06T07:14:15;61883.59;;;-140.56;100.00
22830;BME280;11581;51.250;6.778;2024-01-06T07:17:41;61883.59;;;-140.56;100.00
22830;BME280;11581;51.250;6.778;2024-01-06T07:21:06;61883.59;;;-140.56;100.00
22830;BME280;11581;51.250;6.778;2024-01-06T07:24:31;61883.59;;;-140.56;100.00
22830;BME280;11581;51.250;6.778;2024-01-06T07:27:56;61883.59;;;-140.56;100.00
22830;BME280;11581;51.250;6.778;2024-01-06T07:31:00;99997.03;;;10.78;84.37
22830;BME280;11581;51.250;6.778;2024-01-06T07:34:25;61883.59;;;-140.56;100.00
22830;BME280;11581;51.250;6.778;2024-01-06T07:37:51;61883.59;;;-140.56;100.00
22830;BME280;11581;51.250;6.778;2024-01-06T07:41:16;61883.59;;;-140.56;100.00
22830;BME280;11581;51.250;6.778;2024-01-06T07:44:42;61883.59;;;-140.56;100.00
22830;BME280;11581;51.250;6.778;2024-01-06T07:48:09;61883.59;;;-140.56;100.00
22830;BME280;11581;51.250;6.778;2024-01-06T07:51:34;61883.59;;;-140.56;100.00
22830;BME280;11581;51.250;6.778;2024-01-06T07:54:59;61883.59;;;-140.56;100.00
22830;BME280;11581;51.250;6.778;2024-01-06T07:58:25;61883.59;;;-140.56;100.00
22830;BME280;11581;51.250;6.778;2024-01-06T08:01:51;61883.59;;;-140.56;100.00
22830;BME280;11581;51.250;6.778;2024-01-06T08:05:18;61883.59;;;-140.56;100.00
22830;BME280;11581;51.250;6.778;2024-01-06T08:08:43;61883.59;;;-140.56;100.00
22830;BME280;11581;51.250;6.778;2024-01-06T08:12:12;61883.59;;;-140.56;100.00
22830;BME280;11581;51.250;6.778;2024-01-06T08:15:37;61883.59;;;-140.56;100.00
22830;BME280;11581;51.250;6.778;2024-01-06T08:19:03;61883.59;;;-140.56;100.00
22830;BME280;11581;51.250;6.778;2024-01-06T08:22:29;61883.59;;;-140.56;100.00
22830;BME280;11581;51.250;6.778;2024-01-06T08:25:55;61883.59;;;-140.56;100.00
22830;BME280;11581;51.250;6.778;2024-01-06T08:29:20;61883.59;;;-140.56;100.00
22830;BME280;11581;51.250;6.778;2024-01-06T08:32:45;61883.59;;;-140.56;100.00
22830;BME280;11581;51.250;6.778;2024-01-06T08:36:10;61883.59;;;-140.56;100.00
22830;BME280;11581;51.250;6.778;2024-01-06T08:39:37;61883.59;;;-140.56;100.00
22830;BME280;11581;51.250;6.778;2024-01-06T08:43:03;61883.59;;;-140.56;100.00
22830;BME280;11581;51.250;6.778;2024-01-06T08:46:28;61883.59;;;-140.56;100.00
22830;BME280;11581;51.250;6.778;2024-01-06T08:49:54;61883.59;;;-140.56;100.00
22830;BME280;11581;51.250;6.778;2024-01-06T08:53:19;61883.59;;;-140.56;100.00
22830;BME280;11581;51.250;6.778;2024-01-06T08:56:45;61883.59;;;-140.56;100.00
22830;BME280;11581;51.250;6.778;2024-01-06T09:00:11;61883.59;;;-140.56;100.00
22830;BME280;11581;51.250;6.778;2024-01-06T09:03:37;61883.59;;;-140.56;100.00
22830;BME280;11581;51.250;6.778;2024-01-06T09:07:02;61883.59;;;-140.56;100.00
22830;BME280;11581;51.250;6.778;2024-01-06T09:10:27;61883.59;;;-140.56;100.00
22830;BME280;11581;51.250;6.778;2024-01-06T09:13:54;61883.59;;;-140.56;100.00
22830;BME280;11581;51.250;6.778;2024-01-06T09:17:19;61883.59;;;-140.56;100.00
22830;BME280;11581;51.250;6.778;2024-01-06T09:20:46;61883.59;;;-140.56;100.00
22830;BME280;11581;51.250;6.778;2024-01-06T09:24:12;61883.59;;;-140.56;100.00
22830;BME280;11581;51.250;6.778;2024-01-06T09:27:37;61883.59;;;-140.56;100.00
22830;BME280;11581;51.250;6.778;2024-01-06T09:31:05;61883.59;;;-140.56;100.00
22830;BME280;11581;51.250;6.778;2024-01-06T09:34:30;61883.59;;;-140.56;100.00
22830;BME280;11581;51.250;6.778;2024-01-06T09:37:55;61883.59;;;-140.56;100.00
22830;BME280;11581;51.250;6.778;2024-01-06T09:41:21;61883.59;;;-140.56;100.00
22830;BME280;11581;51.250;6.778;2024-01-06T09:44:47;61883.59;;;-140.56;100.00
22830;BME280;11581;51.250;6.778;2024-01-06T09:48:15;61883.59;;;-140.56;100.00
22830;BME280;11581;51.250;6.778;2024-01-06T09:51:42;61883.59;;;-140.56;100.00
22830;BME280;11581;51.250;6.778;2024-01-06T09:55:09;61883.59;;;-140.56;100.00
22830;BME280;11581;51.250;6.778;2024-01-06T09:58:35;61883.59;;;-140.56;100.00
22830;BME280;11581;51.250;6.778;2024-01-06T10:02:02;61883.59;;;-140.56;100.00
22830;BME280;11581;51.250;6.778;2024-01-06T10:05:30;61883.59;;;-140.56;100.00
22830;BME280;11581;51.250;6.778;2024-01-06T10:08:55;61883.59;;;-140.56;100.00
22830;BME280;11581;51.250;6.778;2024-01-06T10:12:22;61883.59;;;-140.56;100.00
22830;BME280;11581;51.250;6.778;2024-01-06T10:15:19;99997.03;;;10.78;84.37
22830;BME280;11581;51.250;6.778;2024-01-06T10:17:46;100530.06;;;8.46;82.39
22830;BME280;11581;51.250;6.778;2024-01-06T10:20:14;100596.09;;;8.69;81.88
22830;BME280;11581;51.250;6.778;2024-01-06T10:22:43;100598.06;;;8.77;82.32
22830;BME280;11581;51.250;6.778;2024-01-06T10:25:10;100607.16;;;8.74;81.92
22830;BME280;11581;51.250;6.778;2024-01-06T10:27:38;100576.50;;;8.61;81.88
22830;BME280;11581;51.250;6.778;2024-01-06T10:30:07;100572.00;;;8.52;81.49
22830;BME280;11581;51.250;6.778;2024-01-06T10:32:35;100599.75;;;8.68;81.57
22830;BME280;11581;51.250;6.778;2024-01-06T10:35:02;100601.56;;;8.68;82.05
22830;BME280;11581;51.250;6.778;2024-01-06T10:37:30;100592.03;;;8.65;81.52
22830;BME280;11581;51.250;6.778;2024-01-06T10:40:08;100606.19;;;8.66;81.30
22830;BME280;11581;51.250;6.778;2024-01-06T10:42:36;100605.34;;;8.65;82.13
22830;BME280;11581;51.250;6.778;2024-01-06T10:45:04;100603.53;;;8.66;81.53
22830;BME280;11581;51.250;6.778;2024-01-06T10:47:34;100552.44;;;8.34;82.17
22830;BME280;11581;51.250;6.778;2024-01-06T10:50:01;100469.25;;;7.75;81.79
22830;BME280;11581;51.250;6.778;2024-01-06T10:52:30;100614.16;;;8.66;82.02
22830;BME280;11581;51.250;6.778;2024-01-06T10:54:58;100501.72;;;7.88;81.81
22830;BME280;11581;51.250;6.778;2024-01-06T10:57:25;100610.78;;;8.64;81.52
22830;BME280;11581;51.250;6.778;2024-01-06T10:59:53;61883.59;;;-140.56;100.00
22830;BME280;11581;51.250;6.778;2024-01-06T11:02:25;100610.78;;;8.64;81.52
22830;BME280;11581;51.250;6.778;2024-01-06T11:05:51;61883.59;;;-140.56;100.00
22830;BME280;11581;51.250;6.778;2024-01-06T11:09:06;100610.78;;;-140.56;81.52
22830;BME280;11581;51.250;6.778;2024-01-06T11:11:36;100623.41;;;8.71;82.10
22830;BME280;11581;51.250;6.778;2024-01-06T11:15:05;77709.19;;;-140.56;82.10
22830;BME280;11581;51.250;6.778;2024-01-06T11:18:48;61883.59;;;-140.56;100.00
22830;BME280;11581;51.250;6.778;2024-01-06T11:22:19;61883.59;;;-140.56;100.00
22830;BME280;11581;51.250;6.778;2024-01-06T11:24:54;100623.41;;;8.71;82.10
22830;BME280;11581;51.250;6.778;2024-01-06T11:28:23;61883.59;;;-140.56;100.00
22830;BME280;11581;51.250;6.778;2024-01-06T11:34:30;100618.75;;;8.64;80.23
22830;BME280;11581;51.250;6.778;2024-01-06T11:36:57;100622.97;;;8.66;80.34
22830;BME280;11581;51.250;6.778;2024-01-06T11:39:37;100523.81;;;7.98;79.54
22830;BME280;11581;51.250;6.778;2024-01-06T11:43:05;61883.59;;;-140.56;100.00
22830;BME280;11581;51.250;6.778;2024-01-06T11:46:31;61883.59;;;-140.56;100.00
22830;BME280;11581;51.250;6.778;2024-01-06T11:49:57;61883.59;;;-140.56;100.00
22830;BME280;11581;51.250;6.778;2024-01-06T11:53:23;61883.59;;;-140.56;100.00
22830;BME280;11581;51.250;6.778;2024-01-06T11:56:15;100523.81;;;7.98;79.54
22830;BME280;11581;51.250;6.778;2024-01-06T11:58:56;100523.81;;;7.98;79.54
22830;BME280;11581;51.250;6.778;2024-01-06T12:01:36;100523.81;;;7.98;79.54
22830;BME280;11581;51.250;6.778;2024-01-06T12:04:11;100523.81;;;7.98;79.54
22830;BME280;11581;51.250;6.778;2024-01-06T12:06:40;100523.81;;;7.98;79.54
22830;BME280;11581;51.250;6.778;2024-01-06T12:09:09;61883.59;;;-140.56;100.00
22830;BME280;11581;51.250;6.778;2024-01-06T12:11:41;100523.81;;;7.98;79.54
22830;BME280;11581;51.250;6.778;2024-01-06T12:14:14;100523.81;;;7.98;79.54
22830;BME280;11581;51.250;6.778;2024-01-06T12:16:41;100523.81;;;7.98;79.54
22830;BME280;11581;51.250;6.778;2024-01-06T12:19:10;100523.81;;;7.98;79.54
22830;BME280;11581;51.250;6.778;2024-01-06T12:21:40;100523.81;;;7.98;79.54
22830;BME280;11581;51.250;6.778;2024-01-06T12:24:15;100606.72;;;8.50;78.89
22830;BME280;11581;51.250;6.778;2024-01-06T12:26:44;100764.59;;;8.58;80.54
22830;BME280;11581;51.250;6.778;2024-01-06T12:29:12;100607.81;;;8.48;80.87
22830;BME280;11581;51.250;6.778;2024-01-06T12:31:41;100607.81;;;8.48;80.87
22830;BME280;11581;51.250;6.778;2024-01-06T12:34:09;100607.81;;;8.48;80.87
22830;BME280;11581;51.250;6.778;2024-01-06T12:36:37;100631.25;;;8.63;79.52
22830;BME280;11581;51.250;6.778;2024-01-06T12:39:04;100626.19;;;8.60;80.38
22830;BME280;11581;51.250;6.778;2024-01-06T12:41:31;61883.59;;;-140.56;100.00
22830;BME280;11581;51.250;6.778;2024-01-06T12:43:58;61883.59;;;-140.56;100.00
22830;BME280;11581;51.250;6.778;2024-01-06T12:46:27;61883.59;;;-140.56;100.00
22830;BME280;11581;51.250;6.778;2024-01-06T12:48:53;61883.59;;;-140.56;100.00
22830;BME280;11581;51.250;6.778;2024-01-06T12:51:20;61883.59;;;-140.56;100.00
22830;BME280;11581;51.250;6.778;2024-01-06T12:53:47;61883.59;;;-140.56;100.00
22830;BME280;11581;51.250;6.778;2024-01-06T12:56:13;61883.59;;;-140.56;100.00
22830;BME280;11581;51.250;6.778;2024-01-06T12:59:23;61883.59;;;-140.56;100.00
22830;BME280;11581;51.250;6.778;2024-01-06T13:02:49;61883.59;;;-140.56;100.00
22830;BME280;11581;51.250;6.778;2024-01-06T13:05:42;100626.19;;;8.60;80.38
22830;BME280;11581;51.250;6.778;2024-01-06T13:09:07;61883.59;;;-140.56;100.00
22830;BME280;11581;51.250;6.778;2024-01-06T13:12:03;61883.59;;;-140.56;100.00
22830;BME280;11581;51.250;6.778;2024-01-06T13:15:07;61883.59;;;-140.56;100.00
22830;BME280;11581;51.250;6.778;2024-01-06T13:17:38;100663.72;;;8.27;80.20
22830;BME280;11581;51.250;6.778;2024-01-06T13:21:04;61883.59;;;-140.56;100.00
22830;BME280;11581;51.250;6.778;2024-01-06T13:24:29;61883.59;;;-140.56;100.00
22830;BME280;11581;51.250;6.778;2024-01-06T13:27:54;61883.59;;;-140.56;100.00
22830;BME280;11581;51.250;6.778;2024-01-06T13:31:20;61883.59;;;-140.56;100.00
22830;BME280;11581;51.250;6.778;2024-01-06T13:33:48;61883.59;;;-140.56;100.00
22830;BME280;11581;51.250;6.778;2024-01-06T13:36:17;61883.59;;;-140.56;100.00
22830;BME280;11581;51.250;6.778;2024-01-06T13:38:43;61883.59;;;-140.56;100.00
22830;BME280;11581;51.250;6.778;2024-01-06T13:41:10;61883.59;;;-140.56;100.00
22830;BME280;11581;51.250;6.778;2024-01-06T13:43:37;61883.59;;;-140.56;100.00
22830;BME280;11581;51.250;6.778;2024-01-06T13:46:03;61883.59;;;-140.56;100.00
22830;BME280;11581;51.250;6.778;2024-01-06T13:48:30;61883.59;;;-140.56;100.00
22830;BME280;11581;51.250;6.778;2024-01-06T13:50:58;61883.59;;;-140.56;100.00
22830;BME280;11581;51.250;6.778;2024-01-06T13:53:25;61883.59;;;-140.56;100.00
22830;BME280;11581;51.250;6.778;2024-01-06T13:55:52;61883.59;;;-140.56;100.00
22830;BME280;11581;51.250;6.778;2024-01-06T13:58:19;61883.59;;;-140.56;100.00
22830;BME280;11581;51.250;6.778;2024-01-06T14:00:45;61883.59;;;-140.56;100.00
22830;BME280;11581;51.250;6.778;2024-01-06T14:03:13;61883.59;;;-140.56;100.00
22830;BME280;11581;51.250;6.778;2024-01-06T14:05:40;61883.59;;;-140.56;100.00
22830;BME280;11581;51.250;6.778;2024-01-06T14:08:08;61883.59;;;-140.56;100.00
22830;BME280;11581;51.250;6.778;2024-01-06T14:10:35;61883.59;;;-140.56;100.00
22830;BME280;11581;51.250;6.778;2024-01-06T14:13:03;61883.59;;;-140.56;100.00
22830;BME280;11581;51.250;6.778;2024-01-06T14:15:30;61883.59;;;-140.56;100.00
22830;BME280;11581;51.250;6.778;2024-01-06T14:17:58;61883.59;;;-140.56;100.00
22830;BME280;11581;51.250;6.778;2024-01-06T14:20:25;61883.59;;;-140.56;100.00
22830;BME280;11581;51.250;6.778;2024-01-06T14:22:53;61883.59;;;-140.56;100.00
22830;BME280;11581;51.250;6.778;2024-01-06T14:25:21;61883.59;;;-140.56;100.00
22830;BME280;11581;51.250;6.778;2024-01-06T14:27:47;61883.59;;;-140.56;100.00
22830;BME280;11581;51.250;6.778;2024-01-06T14:30:14;61883.59;;;-140.56;100.00
22830;BME280;11581;51.250;6.778;2024-01-06T14:32:41;61883.59;;;-140.56;100.00
22830;BME280;11581;51.250;6.778;2024-01-06T14:35:08;61883.59;;;-140.56;100.00
22830;BME280;11581;51.250;6.778;2024-01-06T14:37:37;61883.59;;;-140.56;100.00
22830;BME280;11581;51.250;6.778;2024-01-06T14:40:04;61883.59;;;-140.56;100.00
22830;BME280;11581;51.250;6.778;2024-01-06T14:42:33;61883.59;;;-140.56;100.00
22830;BME280;11581;51.250;6.778;2024-01-06T14:45:01;61883.59;;;-140.56;100.00
22830;BME280;11581;51.250;6.778;2024-01-06T14:47:28;61883.59;;;-140.56;100.00
22830;BME280;11581;51.250;6.778;2024-01-06T14:49:54;61883.59;;;-140.56;100.00
22830;BME280;11581;51.250;6.778;2024-01-06T14:52:21;61883.59;;;-140.56;100.00
22830;BME280;11581;51.250;6.778;2024-01-06T14:54:48;61883.59;;;-140.56;100.00
22830;BME280;11581;51.250;6.778;2024-01-06T14:57:15;61883.59;;;-140.56;100.00
22830;BME280;11581;51.250;6.778;2024-01-06T14:59:43;61883.59;;;-140.56;100.00
22830;BME280;11581;51.250;6.778;2024-01-06T15:02:09;61883.59;;;-140.56;100.00
22830;BME280;11581;51.250;6.778;2024-01-06T15:04:37;61883.59;;;-140.56;100.00
22830;BME280;11581;51.250;6.778;2024-01-06T15:07:04;61883.59;;;-140.56;100.00
22830;BME280;11581;51.250;6.778;2024-01-06T15:09:30;61883.59;;;-140.56;100.00
22830;BME280;11581;51.250;6.778;2024-01-06T15:11:57;61883.59;;;-140.56;100.00
22830;BME280;11581;51.250;6.778;2024-01-06T15:14:24;61883.59;;;-140.56;100.00
22830;BME280;11581;51.250;6.778;2024-01-06T15:16:52;61883.59;;;-140.56;100.00
22830;BME280;11581;51.250;6.778;2024-01-06T15:19:18;61883.59;;;-140.56;100.00
22830;BME280;11581;51.250;6.778;2024-01-06T15:21:45;61883.59;;;-140.56;100.00
22830;BME280;11581;51.250;6.778;2024-01-06T15:24:13;61883.59;;;-140.56;100.00
22830;BME280;11581;51.250;6.778;2024-01-06T15:26:41;61883.59;;;-140.56;100.00
22830;BME280;11581;51.250;6.778;2024-01-06T15:29:08;61883.59;;;-140.56;100.00
22830;BME280;11581;51.250;6.778;2024-01-06T15:31:35;61883.59;;;-140.56;100.00
22830;BME280;11581;51.250;6.778;2024-01-06T15:34:03;61883.59;;;-140.56;100.00
22830;BME280;11581;51.250;6.778;2024-01-06T15:36:30;61883.59;;;-140.56;100.00
22830;BME280;11581;51.250;6.778;2024-01-06T15:38:57;61883.59;;;-140.56;100.00
22830;BME280;11581;51.250;6.778;2024-01-06T15:41:24;61883.59;;;-140.56;100.00
22830;BME280;11581;51.250;6.778;2024-01-06T15:43:50;61883.59;;;-140.56;100.00